Time,TemperatureF,DewpointF,PressureIn,WindDirection,WindDirectionDegrees,WindSpeedMPH,WindSpeedGustMPH,Humidity,HourlyPrecipIn,Conditions,Clouds,dailyrainin,SoftwareType,DateUTC
2013-05-12 00:03:00,38.8,17.2,30.17,NW,315,7.2,9.7,41,0.00,,SKC,0.00,VWS V14.01,2013-05-12 05:03:00,
2013-05-12 00:09:00,38.8,17.2,30.17,NW,317,9.7,11.3,41,0.00,,SKC,0.00,VWS V14.01,2013-05-12 05:09:00,
2013-05-12 00:14:00,38.7,17.0,30.17,WNW,287,4.8,6.4,41,0.00,,SKC,0.00,VWS V14.01,2013-05-12 05:14:00,
2013-05-12 00:19:00,38.5,16.8,30.17,WNW,289,0.0,4.8,41,0.00,,SKC,0.00,VWS V14.01,2013-05-12 05:19:00,
2013-05-12 00:24:00,38.3,16.7,30.17,NW,315,9.7,10.5,41,0.00,,SKC,0.00,VWS V14.01,2013-05-12 05:24:00,
2013-05-12 00:29:00,38.3,17.2,30.17,West,259,7.2,8.9,42,0.00,,SKC,0.00,VWS V14.01,2013-05-12 05:29:00,
2013-05-12 00:34:00,38.3,17.2,30.17,WNW,299,4.8,6.4,42,0.00,,SKC,0.00,VWS V14.01,2013-05-12 05:34:00,
2013-05-12 00:39:00,38.1,17.1,30.17,NW,307,0.0,5.6,42,0.00,,SKC,0.00,VWS V14.01,2013-05-12 05:39:00,
2013-05-12 00:44:00,38.1,17.1,30.17,NNW,348,0.0,5.6,42,0.00,,SKC,0.00,VWS V14.01,2013-05-12 05:44:00,
2013-05-12 00:49:00,37.9,16.9,30.17,NNW,331,0.0,4.8,42,0.00,,SKC,0.00,VWS V14.01,2013-05-12 05:49:00,
2013-05-12 00:54:00,37.9,16.9,30.20,NNW,327,4.0,4.0,42,0.00,,SKC,0.00,VWS V14.01,2013-05-12 05:54:00,
2013-05-12 00:59:00,37.9,16.9,30.20,NNW,341,7.2,7.2,42,0.00,,SKC,0.00,VWS V14.01,2013-05-12 05:59:00,
2013-05-12 01:04:00,37.9,16.9,30.20,NW,324,4.0,4.0,42,0.00,,SKC,0.00,VWS V14.01,2013-05-12 06:04:00,
2013-05-12 01:09:00,37.8,16.8,30.20,NW,313,4.0,4.0,42,0.00,,SKC,0.00,VWS V14.01,2013-05-12 06:09:00,
2013-05-12 01:14:00,37.6,16.6,30.20,NW,313,0.0,4.0,42,0.00,,SKC,0.00,VWS V14.01,2013-05-12 06:14:00,
2013-05-12 01:19:00,37.4,16.4,30.20,NW,313,0.0,0.0,42,0.00,,SKC,0.00,VWS V14.01,2013-05-12 06:19:00,
2013-05-12 01:24:00,37.0,16.6,30.20,NW,305,0.0,4.8,43,0.00,,SKC,0.00,VWS V14.01,2013-05-12 06:24:00,
2013-05-12 01:29:00,37.0,16.6,30.20,NW,305,0.0,0.0,43,0.00,,SKC,0.00,VWS V14.01,2013-05-12 06:29:00,
2013-05-12 01:34:00,36.9,16.5,30.20,NW,305,0.0,0.0,43,0.00,,SKC,0.00,VWS V14.01,2013-05-12 06:34:00,
2013-05-12 01:39:00,36.5,16.7,30.20,NW,305,0.0,0.0,44,0.00,,SKC,0.00,VWS V14.01,2013-05-12 06:39:00,
2013-05-12 01:44:00,36.3,17.0,30.20,NW,305,0.0,0.0,45,0.00,,SKC,0.00,VWS V14.01,2013-05-12 06:44:00,
2013-05-12 01:49:00,36.1,16.9,30.20,NW,305,0.0,0.0,45,0.00,,SKC,0.00,VWS V14.01,2013-05-12 06:49:00,
2013-05-12 01:54:00,36.0,16.7,30.20,WNW,302,4.0,4.8,45,0.00,,SKC,0.00,VWS V14.01,2013-05-12 06:54:00,
2013-05-12 01:59:00,35.8,17.0,30.20,WNW,285,5.6,5.6,46,0.00,,SKC,0.00,VWS V14.01,2013-05-12 06:59:00,
2013-05-12 02:04:00,35.6,17.4,30.20,WNW,292,0.0,0.0,47,0.00,,SKC,0.00,VWS V14.01,2013-05-12 07:04:00,
2013-05-12 02:09:00,35.4,17.2,30.20,West,278,4.8,4.8,47,0.00,,SKC,0.00,VWS V14.01,2013-05-12 07:09:00,
2013-05-12 02:14:00,35.2,17.0,30.20,WNW,294,0.0,0.0,47,0.00,,SKC,0.00,VWS V14.01,2013-05-12 07:14:00,
2013-05-12 02:19:00,35.2,17.5,30.20,WNW,294,0.0,4.0,48,0.00,,SKC,0.00,VWS V14.01,2013-05-12 07:19:00,
2013-05-12 02:24:00,35.1,17.4,30.20,WNW,294,0.0,0.0,48,0.00,,SKC,0.00,VWS V14.01,2013-05-12 07:24:00,
2013-05-12 02:29:00,35.1,17.8,30.20,WNW,294,0.0,0.0,49,0.00,,SKC,0.00,VWS V14.01,2013-05-12 07:29:00,
2013-05-12 02:34:00,34.9,17.7,30.20,WNW,294,0.0,4.8,49,0.00,,SKC,0.00,VWS V14.01,2013-05-12 07:34:00,
2013-05-12 02:39:00,35.1,17.8,30.20,WNW,284,0.0,0.0,49,0.00,,SKC,0.00,VWS V14.01,2013-05-12 07:39:00,
2013-05-12 02:44:00,35.1,17.8,30.20,NW,304,4.0,4.8,49,0.00,,SKC,0.00,VWS V14.01,2013-05-12 07:44:00,
2013-05-12 02:49:00,35.1,17.4,30.20,NW,315,0.0,5.6,48,0.00,,SKC,0.00,VWS V14.01,2013-05-12 07:49:00,
2013-05-12 02:55:00,35.1,17.4,30.20,WNW,295,0.0,7.2,48,0.00,,SKC,0.00,VWS V14.01,2013-05-12 07:55:00,
2013-05-12 03:01:00,35.1,17.4,30.20,NW,310,4.8,4.8,48,0.00,,SKC,0.00,VWS V14.01,2013-05-12 08:01:00,
2013-05-12 03:06:00,34.9,17.2,30.20,WNW,295,0.0,0.0,48,0.00,,SKC,0.00,VWS V14.01,2013-05-12 08:06:00,
2013-05-12 03:11:00,34.5,17.3,30.20,West,272,0.0,0.0,49,0.00,,SKC,0.00,VWS V14.01,2013-05-12 08:11:00,
2013-05-12 03:17:00,34.5,17.3,30.20,WNW,282,0.0,0.0,49,0.00,,SKC,0.00,VWS V14.01,2013-05-12 08:17:00,
2013-05-12 03:22:00,34.3,17.2,30.20,NW,312,0.0,4.0,49,0.00,,SKC,0.00,VWS V14.01,2013-05-12 08:22:00,
2013-05-12 03:27:00,34.2,17.0,30.20,NW,304,0.0,4.8,49,0.00,,SKC,0.00,VWS V14.01,2013-05-12 08:27:00,
2013-05-12 03:32:00,34.2,17.0,30.20,NW,304,0.0,0.0,49,0.00,,SKC,0.00,VWS V14.01,2013-05-12 08:32:00,
2013-05-12 03:37:00,34.0,17.3,30.20,NW,307,0.0,0.0,50,0.00,,SKC,0.00,VWS V14.01,2013-05-12 08:37:00,
2013-05-12 03:43:00,33.8,17.1,30.20,WNW,295,0.0,0.0,50,0.00,,SKC,0.00,VWS V14.01,2013-05-12 08:43:00,
2013-05-12 03:49:00,33.4,16.8,30.20,West,268,0.0,0.0,50,0.00,,SKC,0.00,VWS V14.01,2013-05-12 08:49:00,
2013-05-12 03:54:00,33.3,17.1,30.20,West,269,4.0,4.0,51,0.00,,SKC,0.00,VWS V14.01,2013-05-12 08:54:00,
2013-05-12 03:59:00,33.3,17.5,30.20,West,269,0.0,0.0,52,0.00,,SKC,0.00,VWS V14.01,2013-05-12 08:59:00,
2013-05-12 04:04:00,33.3,17.5,30.20,West,269,0.0,0.0,52,0.00,,SKC,0.00,VWS V14.01,2013-05-12 09:04:00,
2013-05-12 04:09:00,33.3,18.0,30.20,West,269,0.0,0.0,53,0.00,,SKC,0.00,VWS V14.01,2013-05-12 09:09:00,
2013-05-12 04:14:00,33.1,17.8,30.20,West,269,0.0,0.0,53,0.00,,SKC,0.00,VWS V14.01,2013-05-12 09:14:00,
2013-05-12 04:19:00,32.9,17.7,30.20,WNW,284,0.0,0.0,53,0.00,,SKC,0.00,VWS V14.01,2013-05-12 09:19:00,
2013-05-12 04:24:00,32.9,17.7,30.20,NW,314,0.0,0.0,53,0.00,,SKC,0.00,VWS V14.01,2013-05-12 09:24:00,
2013-05-12 04:29:00,33.1,17.8,30.20,NNW,336,10.5,10.5,53,0.00,,SKC,0.00,VWS V14.01,2013-05-12 09:29:00,
2013-05-12 04:34:00,33.3,17.5,30.20,NNW,341,0.0,0.0,52,0.00,,SKC,0.00,VWS V14.01,2013-05-12 09:34:00,
2013-05-12 04:39:00,33.3,17.5,30.20,NW,312,0.0,0.0,52,0.00,,SKC,0.00,VWS V14.01,2013-05-12 09:39:00,
2013-05-12 04:44:00,33.3,17.5,30.20,NW,324,5.6,5.6,52,0.00,,SKC,0.00,VWS V14.01,2013-05-12 09:44:00,
2013-05-12 04:49:00,33.3,17.5,30.20,WNW,293,0.0,0.0,52,0.00,,SKC,0.00,VWS V14.01,2013-05-12 09:49:00,
2013-05-12 04:54:00,33.3,17.5,30.20,NW,317,0.0,5.6,52,0.00,,SKC,0.00,VWS V14.01,2013-05-12 09:54:00,
2013-05-12 04:59:00,33.4,17.7,30.20,NW,308,0.0,4.8,52,0.00,,SKC,0.00,VWS V14.01,2013-05-12 09:59:00,
2013-05-12 05:04:00,33.3,17.5,30.20,NNW,337,0.0,0.0,52,0.00,,SKC,0.00,VWS V14.01,2013-05-12 10:04:00,
2013-05-12 05:10:00,33.1,17.4,30.20,West,280,0.0,4.8,52,0.00,,SKC,0.00,VWS V14.01,2013-05-12 10:10:00,
2013-05-12 05:15:00,33.1,17.4,30.20,WNW,303,0.0,0.0,52,0.00,,SKC,0.00,VWS V14.01,2013-05-12 10:15:00,
2013-05-12 05:21:00,33.1,17.4,30.20,WNW,303,0.0,4.8,52,0.00,,SKC,0.00,VWS V14.01,2013-05-12 10:21:00,
2013-05-12 05:26:00,33.1,16.9,30.20,WNW,303,0.0,0.0,51,0.00,,SKC,0.00,VWS V14.01,2013-05-12 10:26:00,
2013-05-12 05:32:00,33.1,16.9,30.20,WNW,287,0.0,0.0,51,0.00,,SKC,0.00,VWS V14.01,2013-05-12 10:32:00,
2013-05-12 05:37:00,32.9,16.8,30.20,WNW,287,0.0,0.0,51,0.00,,SKC,0.00,VWS V14.01,2013-05-12 10:37:00,
2013-05-12 05:42:00,32.7,16.6,30.20,West,279,0.0,0.0,51,0.00,,SKC,0.00,VWS V14.01,2013-05-12 10:42:00,
2013-05-12 05:47:00,32.7,17.0,30.20,WNW,296,0.0,0.0,52,0.00,,SKC,0.00,VWS V14.01,2013-05-12 10:47:00,
2013-05-12 05:54:00,32.5,17.3,30.20,WNW,303,0.0,0.0,53,0.00,,SKC,0.00,VWS V14.01,2013-05-12 10:54:00,
2013-05-12 05:59:00,32.5,17.3,30.20,WNW,300,4.0,5.6,53,0.00,,SKC,0.00,VWS V14.01,2013-05-12 10:59:00,
2013-05-12 06:04:00,32.4,17.1,30.20,WNW,292,5.6,5.6,53,0.00,,SKC,0.00,VWS V14.01,2013-05-12 11:04:00,
2013-05-12 06:09:00,32.5,17.3,30.20,WNW,303,4.8,4.8,53,0.00,,SKC,0.00,VWS V14.01,2013-05-12 11:09:00,
2013-05-12 06:14:00,32.7,17.9,30.20,WNW,303,0.0,0.0,54,0.00,,SKC,0.00,VWS V14.01,2013-05-12 11:14:00,
2013-05-12 06:19:00,33.1,18.3,30.20,NW,314,0.0,4.0,54,0.00,,SKC,0.00,VWS V14.01,2013-05-12 11:19:00,
2013-05-12 06:24:00,33.8,18.5,30.20,NW,314,0.0,0.0,53,0.00,,SKC,0.00,VWS V14.01,2013-05-12 11:24:00,
2013-05-12 06:29:00,34.0,18.2,30.20,NW,314,0.0,0.0,52,0.00,,SKC,0.00,VWS V14.01,2013-05-12 11:29:00,
2013-05-12 06:34:00,36.9,21.3,30.20,NW,318,4.0,4.0,53,0.00,,SKC,0.00,VWS V14.01,2013-05-12 11:34:00,
2013-05-12 06:39:00,37.2,20.3,30.20,NW,318,0.0,0.0,50,0.00,,SKC,0.00,VWS V14.01,2013-05-12 11:39:00,
2013-05-12 06:45:00,36.9,19.5,30.20,NW,313,0.0,7.2,49,0.00,,SKC,0.00,VWS V14.01,2013-05-12 11:45:00,
2013-05-12 06:51:00,40.1,21.0,30.23,WNW,301,0.0,4.8,46,0.00,,SKC,0.00,VWS V14.01,2013-05-12 11:51:00,
2013-05-12 06:56:00,39.6,19.5,30.23,WNW,301,0.0,0.0,44,0.00,,SKC,0.00,VWS V14.01,2013-05-12 11:56:00,
2013-05-12 07:01:00,39.7,19.6,30.23,NW,322,4.0,5.6,44,0.00,,SKC,0.00,VWS V14.01,2013-05-12 12:01:00,
2013-05-12 07:06:00,41.0,20.2,30.23,WNW,301,7.2,9.7,43,0.00,,SKC,0.00,VWS V14.01,2013-05-12 12:06:00,
2013-05-12 07:11:00,40.8,19.5,30.23,NNW,346,5.6,9.7,42,0.00,,SKC,0.00,VWS V14.01,2013-05-12 12:11:00,
2013-05-12 07:16:00,40.8,19.5,30.23,NNW,340,7.2,8.9,42,0.00,,SKC,0.00,VWS V14.01,2013-05-12 12:16:00,
2013-05-12 07:22:00,41.2,19.3,30.23,NW,319,6.4,6.4,41,0.00,,SKC,0.00,VWS V14.01,2013-05-12 12:22:00,
2013-05-12 07:27:00,39.4,18.2,30.23,NW,316,4.8,7.2,42,0.00,,SKC,0.00,VWS V14.01,2013-05-12 12:27:00,
2013-05-12 07:32:00,39.6,18.9,30.23,NNW,344,5.6,7.2,43,0.00,,SKC,0.00,VWS V14.01,2013-05-12 12:32:00,
2013-05-12 07:38:00,41.2,19.9,30.23,NW,309,4.8,9.7,42,0.00,,SKC,0.00,VWS V14.01,2013-05-12 12:38:00,
2013-05-12 07:43:00,41.2,19.9,30.23,NW,316,5.6,9.7,42,0.00,,SKC,0.00,VWS V14.01,2013-05-12 12:43:00,
2013-05-12 07:48:00,43.5,21.4,30.23,NNW,342,4.8,7.2,41,0.00,,SKC,0.00,VWS V14.01,2013-05-12 12:48:00,
2013-05-12 07:54:00,45.3,21.8,30.23,West,266,7.2,7.2,39,0.00,,SKC,0.00,VWS V14.01,2013-05-12 12:54:00,
2013-05-12 07:59:00,46.0,22.5,30.23,NW,314,5.6,7.2,39,0.00,,SKC,0.00,VWS V14.01,2013-05-12 12:59:00,
2013-05-12 08:04:00,47.7,23.3,30.23,WNW,303,5.6,9.7,38,0.00,,SKC,0.00,VWS V14.01,2013-05-12 13:04:00,
2013-05-12 08:09:00,49.3,24.1,30.23,WNW,302,5.6,10.5,37,0.00,,SKC,0.00,VWS V14.01,2013-05-12 13:09:00,
2013-05-12 08:14:00,47.7,22.7,30.23,NNE,23,10.5,10.5,37,0.00,,SKC,0.00,VWS V14.01,2013-05-12 13:14:00,
2013-05-12 08:19:00,43.0,19.1,30.23,NW,323,7.2,14.5,38,0.00,,SKC,0.00,VWS V14.01,2013-05-12 13:19:00,
2013-05-12 08:25:00,42.1,18.9,30.23,North,6,9.7,10.5,39,0.00,,SKC,0.00,VWS V14.01,2013-05-12 13:25:00,
2013-05-12 08:30:00,41.7,18.6,30.23,North,353,10.5,11.3,39,0.00,,SKC,0.00,VWS V14.01,2013-05-12 13:30:00,
2013-05-12 08:35:00,42.1,18.9,30.23,North,353,14.9,14.9,39,0.00,,SKC,0.00,VWS V14.01,2013-05-12 13:35:00,
2013-05-12 08:40:00,42.3,19.1,30.23,NNW,344,6.4,8.9,39,0.00,,SKC,0.00,VWS V14.01,2013-05-12 13:40:00,
2013-05-12 08:46:00,42.6,19.4,30.23,North,4,7.2,9.7,39,0.00,,SKC,0.00,VWS V14.01,2013-05-12 13:46:00,
2013-05-12 08:51:00,42.8,19.0,30.23,North,353,10.5,13.7,38,0.00,,SKC,0.00,VWS V14.01,2013-05-12 13:51:00,
2013-05-12 08:57:00,42.8,19.0,30.23,North,0,11.3,11.3,38,0.00,,SKC,0.00,VWS V14.01,2013-05-12 13:57:00,
2013-05-12 09:02:00,43.0,19.1,30.23,North,353,11.3,14.5,38,0.00,,SKC,0.00,VWS V14.01,2013-05-12 14:02:00,
2013-05-12 09:07:00,43.3,19.5,30.23,NW,324,11.3,14.9,38,0.00,,SKC,0.00,VWS V14.01,2013-05-12 14:07:00,
2013-05-12 09:13:00,43.7,19.1,30.23,NNW,340,4.8,8.9,37,0.00,,SKC,0.00,VWS V14.01,2013-05-12 14:13:00,
2013-05-12 09:18:00,43.9,19.3,30.23,North,349,14.9,14.9,37,0.00,,SKC,0.00,VWS V14.01,2013-05-12 14:18:00,
2013-05-12 09:23:00,44.1,19.5,30.23,North,0,9.7,14.9,37,0.00,,SKC,0.00,VWS V14.01,2013-05-12 14:23:00,
2013-05-12 09:28:00,44.1,18.8,30.23,NNW,345,13.7,14.9,36,0.00,,SKC,0.00,VWS V14.01,2013-05-12 14:28:00,
2013-05-12 09:34:00,43.9,18.7,30.23,North,357,12.1,14.5,36,0.00,,SKC,0.00,VWS V14.01,2013-05-12 14:34:00,
2013-05-12 09:39:00,44.1,19.5,30.23,NNW,340,12.9,13.7,37,0.00,,SKC,0.00,VWS V14.01,2013-05-12 14:39:00,
2013-05-12 09:44:00,44.6,19.3,30.23,North,357,10.5,10.5,36,0.00,,SKC,0.00,VWS V14.01,2013-05-12 14:44:00,
2013-05-12 09:49:00,45.1,19.8,30.23,North,3,9.7,9.7,36,0.00,,SKC,0.00,VWS V14.01,2013-05-12 14:49:00,
2013-05-12 09:54:00,45.3,20.0,30.23,NNW,338,11.3,11.3,36,0.00,,SKC,0.00,VWS V14.01,2013-05-12 14:54:00,
2013-05-12 09:59:00,45.7,20.3,30.23,North,357,9.7,9.7,36,0.00,,SKC,0.00,VWS V14.01,2013-05-12 14:59:00,
2013-05-12 10:04:00,45.5,19.5,30.23,North,0,8.9,8.9,35,0.00,,SKC,0.00,VWS V14.01,2013-05-12 15:04:00,
2013-05-12 10:09:00,45.7,18.9,30.23,North,349,10.5,10.5,34,0.00,,SKC,0.00,VWS V14.01,2013-05-12 15:09:00,
2013-05-12 10:14:00,46.0,19.9,30.23,WNW,295,10.5,10.5,35,0.00,,SKC,0.00,VWS V14.01,2013-05-12 15:14:00,
2013-05-12 10:19:00,46.2,18.7,30.23,NW,307,8.1,17.3,33,0.00,,SKC,0.00,VWS V14.01,2013-05-12 15:19:00,
2013-05-12 10:24:00,46.4,18.2,30.23,WNW,292,11.3,11.3,32,0.00,,SKC,0.00,VWS V14.01,2013-05-12 15:24:00,
2013-05-12 10:29:00,46.8,19.2,30.23,NW,316,4.8,11.3,33,0.00,,SKC,0.00,VWS V14.01,2013-05-12 15:29:00,
2013-05-12 10:35:00,47.1,20.2,30.23,NNW,329,14.5,14.5,34,0.00,,SKC,0.00,VWS V14.01,2013-05-12 15:35:00,
2013-05-12 10:40:00,47.1,18.8,30.23,WNW,302,14.9,15.7,32,0.00,,SKC,0.00,VWS V14.01,2013-05-12 15:40:00,
2013-05-12 10:45:00,46.9,19.4,30.23,NNW,339,19.7,19.7,33,0.00,,SKC,0.00,VWS V14.01,2013-05-12 15:45:00,
2013-05-12 10:51:00,47.5,19.8,30.23,North,357,9.7,9.7,33,0.00,,SKC,0.00,VWS V14.01,2013-05-12 15:51:00,
2013-05-12 10:56:00,47.7,19.3,30.23,SW,218,11.3,11.3,32,0.00,,SKC,0.00,VWS V14.01,2013-05-12 15:56:00,
2013-05-12 11:01:00,47.7,18.5,30.23,WSW,252,18.9,19.7,31,0.00,,SKC,0.00,VWS V14.01,2013-05-12 16:01:00,
2013-05-12 11:06:00,47.5,19.1,30.23,WSW,255,14.5,15.7,32,0.00,,SKC,0.00,VWS V14.01,2013-05-12 16:06:00,
2013-05-12 11:11:00,47.7,19.3,30.23,NNW,340,9.7,13.7,32,0.00,,SKC,0.00,VWS V14.01,2013-05-12 16:11:00,
2013-05-12 11:16:00,47.8,19.4,30.23,NNW,346,18.1,18.1,32,0.00,,SKC,0.00,VWS V14.01,2013-05-12 16:16:00,
2013-05-12 11:22:00,48.2,19.7,30.23,North,0,7.2,7.2,32,0.00,,SKC,0.00,VWS V14.01,2013-05-12 16:22:00,
2013-05-12 11:27:00,48.2,19.0,30.23,West,268,23.0,23.0,31,0.00,,SKC,0.00,VWS V14.01,2013-05-12 16:27:00,
2013-05-12 11:32:00,48.7,19.5,30.23,North,353,7.2,11.3,31,0.00,,SKC,0.00,VWS V14.01,2013-05-12 16:32:00,
2013-05-12 11:37:00,48.7,19.5,30.23,North,353,14.5,23.0,31,0.00,,SKC,0.00,VWS V14.01,2013-05-12 16:37:00,
2013-05-12 11:42:00,48.7,19.5,30.23,NW,319,12.1,14.9,31,0.00,,SKC,0.00,VWS V14.01,2013-05-12 16:42:00,
2013-05-12 11:47:00,49.1,19.8,30.23,NNW,343,14.9,15.7,31,0.00,,SKC,0.00,VWS V14.01,2013-05-12 16:47:00,
2013-05-12 11:52:00,49.1,19.8,30.23,North,357,10.5,10.5,31,0.00,,SKC,0.00,VWS V14.01,2013-05-12 16:52:00,
2013-05-12 11:59:00,49.3,19.2,30.23,West,264,18.1,22.1,30,0.00,,SKC,0.00,VWS V14.01,2013-05-12 16:59:00,
2013-05-12 12:04:00,49.8,19.6,30.23,WNW,289,10.5,14.9,30,0.00,,SKC,0.00,VWS V14.01,2013-05-12 17:04:00,
2013-05-12 12:09:00,50.4,20.1,30.23,NW,320,5.6,5.6,30,0.00,,SKC,0.00,VWS V14.01,2013-05-12 17:09:00,
2013-05-12 12:14:00,50.9,20.6,30.23,WNW,282,18.9,23.0,30,0.00,,SKC,0.00,VWS V14.01,2013-05-12 17:14:00,
2013-05-12 12:19:00,50.7,20.4,30.23,North,3,7.2,13.7,30,0.00,,SKC,0.00,VWS V14.01,2013-05-12 17:19:00,
2013-05-12 12:24:00,51.1,20.8,30.23,NNW,337,7.2,10.5,30,0.00,,SKC,0.00,VWS V14.01,2013-05-12 17:24:00,
2013-05-12 12:29:00,50.7,19.6,30.23,NW,320,9.7,18.1,29,0.00,,SKC,0.00,VWS V14.01,2013-05-12 17:29:00,
2013-05-12 12:35:00,50.4,19.3,30.23,North,353,11.3,11.3,29,0.00,,SKC,0.00,VWS V14.01,2013-05-12 17:35:00,
2013-05-12 12:40:00,50.5,19.5,30.23,NNW,329,11.3,11.3,29,0.00,,SKC,0.00,VWS V14.01,2013-05-12 17:40:00,
2013-05-12 12:45:00,51.3,20.9,30.23,NW,320,11.3,15.7,30,0.00,,SKC,0.00,VWS V14.01,2013-05-12 17:45:00,
2013-05-12 12:51:00,51.1,20.0,30.20,West,278,19.7,19.7,29,0.00,,SKC,0.00,VWS V14.01,2013-05-12 17:51:00,
2013-05-12 12:57:00,52.0,20.7,30.20,NNW,330,7.2,10.5,29,0.00,,SKC,0.00,VWS V14.01,2013-05-12 17:57:00,
2013-05-12 13:02:00,51.8,19.8,30.20,North,0,6.4,16.5,28,0.00,,SKC,0.00,VWS V14.01,2013-05-12 18:02:00,
2013-05-12 13:07:00,51.6,20.4,30.20,WNW,286,9.7,18.1,29,0.00,,SKC,0.00,VWS V14.01,2013-05-12 18:07:00,
2013-05-12 13:12:00,51.6,20.4,30.20,North,353,8.9,22.1,29,0.00,,SKC,0.00,VWS V14.01,2013-05-12 18:12:00,
2013-05-12 13:17:00,52.5,21.2,30.20,West,263,9.7,11.3,29,0.00,,SKC,0.00,VWS V14.01,2013-05-12 18:17:00,
2013-05-12 13:22:00,53.1,21.7,30.20,North,353,17.3,17.3,29,0.00,,SKC,0.00,VWS V14.01,2013-05-12 18:22:00,
2013-05-12 13:27:00,52.7,20.5,30.20,WNW,295,7.2,14.5,28,0.00,,SKC,0.00,VWS V14.01,2013-05-12 18:27:00,
2013-05-12 13:33:00,53.1,20.8,30.20,NW,324,14.9,14.9,28,0.00,,SKC,0.00,VWS V14.01,2013-05-12 18:33:00,
2013-05-12 13:38:00,52.9,20.7,30.20,North,349,7.2,18.1,28,0.00,,SKC,0.00,VWS V14.01,2013-05-12 18:38:00,
2013-05-12 13:43:00,53.6,21.3,30.20,West,266,10.5,14.9,28,0.00,,SKC,0.00,VWS V14.01,2013-05-12 18:43:00,
2013-05-12 13:48:00,53.8,21.5,30.20,NNW,336,7.2,9.7,28,0.00,,SKC,0.00,VWS V14.01,2013-05-12 18:48:00,
2013-05-12 13:53:00,53.8,21.5,30.20,North,11,10.5,14.9,28,0.00,,SKC,0.00,VWS V14.01,2013-05-12 18:53:00,
2013-05-12 13:59:00,54.0,21.6,30.20,NW,322,9.7,11.3,28,0.00,,SKC,0.00,VWS V14.01,2013-05-12 18:59:00,
2013-05-12 14:04:00,54.1,20.9,30.17,WNW,285,11.3,11.3,27,0.00,,SKC,0.00,VWS V14.01,2013-05-12 19:04:00,
2013-05-12 14:09:00,53.8,20.6,30.17,North,353,7.2,11.3,27,0.00,,SKC,0.00,VWS V14.01,2013-05-12 19:09:00,
2013-05-12 14:14:00,53.8,21.5,30.17,North,353,23.0,23.8,28,0.00,,SKC,0.00,VWS V14.01,2013-05-12 19:14:00,
2013-05-12 14:19:00,54.0,20.8,30.17,NW,322,7.2,14.9,27,0.00,,SKC,0.00,VWS V14.01,2013-05-12 19:19:00,
2013-05-12 14:24:00,54.5,21.2,30.17,NNW,340,14.5,14.5,27,0.00,,SKC,0.00,VWS V14.01,2013-05-12 19:24:00,
2013-05-12 14:29:00,54.5,21.2,30.17,WNW,303,5.6,5.6,27,0.00,,SKC,0.00,VWS V14.01,2013-05-12 19:29:00,
2013-05-12 14:34:00,54.9,21.5,30.17,North,0,15.7,19.7,27,0.00,,SKC,0.00,VWS V14.01,2013-05-12 19:34:00,
2013-05-12 14:39:00,55.0,22.5,30.17,SW,234,10.5,10.5,28,0.00,,SKC,0.00,VWS V14.01,2013-05-12 19:39:00,
2013-05-12 14:44:00,55.4,22.0,30.17,NW,324,14.9,14.9,27,0.00,,SKC,0.00,VWS V14.01,2013-05-12 19:44:00,
2013-05-12 14:49:00,56.1,22.6,30.17,NW,323,8.9,8.9,27,0.00,,SKC,0.00,VWS V14.01,2013-05-12 19:49:00,
2013-05-12 14:54:00,56.3,22.8,30.17,NNW,340,15.7,15.7,27,0.00,,SKC,0.00,VWS V14.01,2013-05-12 19:54:00,
2013-05-12 14:59:00,56.5,22.0,30.17,North,353,10.5,19.7,26,0.00,,SKC,0.00,VWS V14.01,2013-05-12 19:59:00,
2013-05-12 15:04:00,56.5,22.9,30.17,North,353,10.5,13.7,27,0.00,,SKC,0.00,VWS V14.01,2013-05-12 20:04:00,
2013-05-12 15:09:00,56.3,22.8,30.17,NW,326,4.8,6.4,27,0.00,,SKC,0.00,VWS V14.01,2013-05-12 20:09:00,
2013-05-12 15:14:00,56.8,23.2,30.17,West,269,19.7,19.7,27,0.00,,SKC,0.00,VWS V14.01,2013-05-12 20:14:00,
2013-05-12 15:19:00,57.2,22.6,30.17,WSW,241,9.7,13.7,26,0.00,,SKC,0.00,VWS V14.01,2013-05-12 20:19:00,
2013-05-12 15:24:00,57.6,23.0,30.17,NNW,335,13.7,13.7,26,0.00,,SKC,0.00,VWS V14.01,2013-05-12 20:24:00,
2013-05-12 15:29:00,57.4,22.8,30.17,West,266,13.7,22.1,26,0.00,,SKC,0.00,VWS V14.01,2013-05-12 20:29:00,
2013-05-12 15:34:00,57.9,23.3,30.14,NW,306,11.3,11.3,26,0.00,,SKC,0.00,VWS V14.01,2013-05-12 20:34:00,
2013-05-12 15:39:00,58.3,23.6,30.14,West,275,16.5,16.5,26,0.00,,SKC,0.00,VWS V14.01,2013-05-12 20:39:00,
2013-05-12 15:44:00,58.3,22.6,30.14,North,353,13.7,19.7,25,0.00,,SKC,0.00,VWS V14.01,2013-05-12 20:44:00,
2013-05-12 15:49:00,58.1,23.4,30.14,North,7,15.7,15.7,26,0.00,,SKC,0.00,VWS V14.01,2013-05-12 20:49:00,
2013-05-12 15:54:00,58.5,23.7,30.14,WSW,247,9.7,11.3,26,0.00,,SKC,0.00,VWS V14.01,2013-05-12 20:54:00,
2013-05-12 15:59:00,58.8,24.0,30.14,NW,322,15.7,15.7,26,0.00,,SKC,0.00,VWS V14.01,2013-05-12 20:59:00,
2013-05-12 16:04:00,59.0,23.2,30.14,NW,307,10.5,10.5,25,0.00,,SKC,0.00,VWS V14.01,2013-05-12 21:04:00,
2013-05-12 16:09:00,59.2,23.4,30.14,WSW,242,13.7,14.5,25,0.00,,SKC,0.00,VWS V14.01,2013-05-12 21:09:00,
2013-05-12 16:14:00,59.5,23.7,30.14,North,4,8.9,9.7,25,0.00,,SKC,0.00,VWS V14.01,2013-05-12 21:14:00,
2013-05-12 16:20:00,59.0,23.2,30.14,West,278,18.1,18.1,25,0.00,,SKC,0.00,VWS V14.01,2013-05-12 21:20:00,
2013-05-12 16:25:00,59.2,23.4,30.14,West,267,14.5,18.1,25,0.00,,SKC,0.00,VWS V14.01,2013-05-12 21:25:00,
2013-05-12 16:30:00,59.2,23.4,30.14,West,259,18.1,18.1,25,0.00,,SKC,0.00,VWS V14.01,2013-05-12 21:30:00,
2013-05-12 16:35:00,59.2,23.4,30.14,West,275,19.7,19.7,25,0.00,,SKC,0.00,VWS V14.01,2013-05-12 21:35:00,
2013-05-12 16:40:00,59.4,23.6,30.14,WNW,289,5.6,11.3,25,0.00,,SKC,0.00,VWS V14.01,2013-05-12 21:40:00,
2013-05-12 16:45:00,59.9,24.0,30.14,West,281,7.2,7.2,25,0.00,,SKC,0.00,VWS V14.01,2013-05-12 21:45:00,
2013-05-12 16:51:00,59.9,24.0,30.14,North,2,9.7,10.5,25,0.00,,SKC,0.00,VWS V14.01,2013-05-12 21:51:00,
2013-05-12 16:56:00,59.2,22.4,30.14,NW,321,11.3,12.1,24,0.00,,SKC,0.00,VWS V14.01,2013-05-12 21:56:00,
2013-05-12 17:01:00,58.8,23.1,30.14,North,353,9.7,9.7,25,0.00,,SKC,0.00,VWS V14.01,2013-05-12 22:01:00,
2013-05-12 17:06:00,58.3,22.6,30.14,West,280,14.5,14.5,25,0.00,,SKC,0.00,VWS V14.01,2013-05-12 22:06:00,
2013-05-12 17:11:00,58.1,22.5,30.14,West,276,7.2,9.7,25,0.00,,SKC,0.00,VWS V14.01,2013-05-12 22:11:00,
2013-05-12 17:16:00,59.2,23.4,30.14,NNW,330,11.3,11.3,25,0.00,,SKC,0.00,VWS V14.01,2013-05-12 22:16:00,
2013-05-12 17:21:00,59.4,23.6,30.14,WNW,302,11.3,14.5,25,0.00,,SKC,0.00,VWS V14.01,2013-05-12 22:21:00,
2013-05-12 17:27:00,58.8,23.1,30.14,North,0,15.7,18.1,25,0.00,,SKC,0.00,VWS V14.01,2013-05-12 22:27:00,
2013-05-12 17:33:00,58.5,22.8,30.14,NW,310,8.9,13.7,25,0.00,,SKC,0.00,VWS V14.01,2013-05-12 22:33:00,
2013-05-12 17:38:00,58.6,22.9,30.11,WSW,253,4.8,8.9,25,0.00,,SKC,0.00,VWS V14.01,2013-05-12 22:38:00,
2013-05-12 17:43:00,59.0,22.3,30.11,NNW,339,7.2,11.3,24,0.00,,SKC,0.00,VWS V14.01,2013-05-12 22:43:00,
2013-05-12 17:48:00,60.3,23.4,30.11,West,266,22.1,22.1,24,0.00,,SKC,0.00,VWS V14.01,2013-05-12 22:48:00,
2013-05-12 17:54:00,64.0,26.5,30.11,NNW,335,14.9,14.9,24,0.00,,SKC,0.00,VWS V14.01,2013-05-12 22:54:00,
2013-05-12 17:59:00,64.8,26.1,30.11,SW,233,9.7,11.3,23,0.00,,SKC,0.00,VWS V14.01,2013-05-12 22:59:00,
2013-05-12 18:04:00,66.2,24.0,30.11,North,0,9.7,14.9,20,0.00,,SKC,0.00,VWS V14.01,2013-05-12 23:04:00,
2013-05-12 18:09:00,64.6,26.0,30.11,NNW,335,4.8,10.5,23,0.00,,SKC,0.00,VWS V14.01,2013-05-12 23:09:00,
2013-05-12 18:14:00,63.7,25.2,30.11,NNW,334,5.6,9.7,23,0.00,,SKC,0.00,VWS V14.01,2013-05-12 23:14:00,
2013-05-12 18:19:00,64.8,26.1,30.11,West,259,11.3,15.7,23,0.00,,SKC,0.00,VWS V14.01,2013-05-12 23:19:00,
2013-05-12 18:24:00,64.8,26.1,30.11,NNW,339,6.4,8.9,23,0.00,,SKC,0.00,VWS V14.01,2013-05-12 23:24:00,
2013-05-12 18:29:00,65.7,23.5,30.11,NW,309,10.5,10.5,20,0.00,,SKC,0.00,VWS V14.01,2013-05-12 23:29:00,
2013-05-12 18:34:00,63.5,25.1,30.11,NNW,341,8.9,13.7,23,0.00,,SKC,0.00,VWS V14.01,2013-05-12 23:34:00,
2013-05-12 18:39:00,63.5,22.9,30.11,NNW,348,9.7,13.7,21,0.00,,SKC,0.00,VWS V14.01,2013-05-12 23:39:00,
2013-05-12 18:44:00,61.3,21.1,30.11,NNW,346,9.7,9.7,21,0.00,,SKC,0.00,VWS V14.01,2013-05-12 23:44:00,
2013-05-12 18:49:00,61.0,20.8,30.11,WNW,289,5.6,9.7,21,0.00,,SKC,0.00,VWS V14.01,2013-05-12 23:49:00,
2013-05-12 18:54:00,61.0,24.0,30.11,WNW,293,7.2,9.7,24,0.00,,SKC,0.00,VWS V14.01,2013-05-12 23:54:00,
2013-05-12 18:59:00,63.0,22.5,30.11,NW,305,9.7,9.7,21,0.00,,SKC,0.00,VWS V14.01,2013-05-12 23:59:00,
2013-05-12 19:04:00,62.1,21.7,30.11,WNW,295,7.2,7.2,21,0.00,,SKC,0.00,VWS V14.01,2013-05-13 00:04:00,
2013-05-12 19:09:00,59.9,21.0,30.11,NNW,348,8.9,8.9,22,0.00,,SKC,0.00,VWS V14.01,2013-05-13 00:09:00,
2013-05-12 19:15:00,57.6,19.0,30.11,NW,322,4.8,11.3,22,0.00,,SKC,0.00,VWS V14.01,2013-05-13 00:15:00,
2013-05-12 19:20:00,56.7,18.3,30.11,North,353,6.4,9.7,22,0.00,,SKC,0.00,VWS V14.01,2013-05-13 00:20:00,
2013-05-12 19:25:00,56.1,17.8,30.11,North,353,7.2,7.2,22,0.00,,SKC,0.00,VWS V14.01,2013-05-13 00:25:00,
2013-05-12 19:31:00,55.8,17.5,30.11,North,3,6.4,9.7,22,0.00,,SKC,0.00,VWS V14.01,2013-05-13 00:31:00,
2013-05-12 19:36:00,55.6,20.3,30.11,NNW,346,7.2,9.7,25,0.00,,SKC,0.00,VWS V14.01,2013-05-13 00:36:00,
2013-05-12 19:41:00,55.4,20.2,30.11,NNW,343,7.2,8.9,25,0.00,,SKC,0.00,VWS V14.01,2013-05-13 00:41:00,
2013-05-12 19:46:00,55.2,20.0,30.11,WNW,301,5.6,6.4,25,0.00,,SKC,0.00,VWS V14.01,2013-05-13 00:46:00,
2013-05-12 19:51:00,55.2,20.0,30.11,NNW,329,5.6,7.2,25,0.00,,SKC,0.00,VWS V14.01,2013-05-13 00:51:00,
2013-05-12 19:56:00,55.0,19.9,30.11,North,353,5.6,7.2,25,0.00,,SKC,0.00,VWS V14.01,2013-05-13 00:56:00,
2013-05-12 20:01:00,54.7,19.6,30.11,NNW,336,4.8,6.4,25,0.00,,SKC,0.00,VWS V14.01,2013-05-13 01:01:00,
2013-05-12 20:06:00,54.0,19.0,30.11,NW,314,4.8,4.8,25,0.00,,SKC,0.00,VWS V14.01,2013-05-13 01:06:00,
2013-05-12 20:12:00,53.2,19.3,30.11,NW,314,0.0,0.0,26,0.00,,SKC,0.00,VWS V14.01,2013-05-13 01:12:00,
2013-05-12 20:17:00,52.5,18.6,30.11,NW,314,0.0,0.0,26,0.00,,SKC,0.00,VWS V14.01,2013-05-13 01:17:00,
2013-05-12 20:22:00,51.8,18.0,30.11,NW,314,0.0,0.0,26,0.00,,SKC,0.00,VWS V14.01,2013-05-13 01:22:00,
2013-05-12 20:28:00,51.4,17.7,30.11,NW,314,0.0,0.0,26,0.00,,SKC,0.00,VWS V14.01,2013-05-13 01:28:00,
2013-05-12 20:34:00,50.9,17.2,30.11,NW,314,0.0,0.0,26,0.00,,SKC,0.00,VWS V14.01,2013-05-13 01:34:00,
2013-05-12 20:39:00,50.4,16.8,30.11,NW,314,0.0,0.0,26,0.00,,SKC,0.00,VWS V14.01,2013-05-13 01:39:00,
2013-05-12 20:44:00,50.0,16.5,30.11,NW,314,0.0,0.0,26,0.00,,SKC,0.00,VWS V14.01,2013-05-13 01:44:00,
2013-05-12 20:49:00,49.3,16.7,30.11,NW,314,0.0,0.0,27,0.00,,SKC,0.00,VWS V14.01,2013-05-13 01:49:00,
2013-05-12 20:54:00,48.6,16.1,30.11,NW,314,0.0,0.0,27,0.00,,SKC,0.00,VWS V14.01,2013-05-13 01:54:00,
2013-05-12 21:00:00,47.7,15.3,30.11,NW,314,0.0,0.0,27,0.00,,SKC,0.00,VWS V14.01,2013-05-13 02:00:00,
2013-05-12 21:05:00,47.3,15.0,30.11,NW,314,0.0,0.0,27,0.00,,SKC,0.00,VWS V14.01,2013-05-13 02:05:00,
2013-05-12 21:10:00,46.8,14.6,30.11,NW,314,0.0,0.0,27,0.00,,SKC,0.00,VWS V14.01,2013-05-13 02:10:00,
2013-05-12 21:15:00,46.4,15.1,30.11,NW,314,0.0,0.0,28,0.00,,SKC,0.00,VWS V14.01,2013-05-13 02:15:00,
2013-05-12 21:20:00,46.0,14.8,30.11,NW,314,0.0,0.0,28,0.00,,SKC,0.00,VWS V14.01,2013-05-13 02:20:00,
2013-05-12 21:25:00,45.5,15.9,30.11,NW,314,0.0,0.0,30,0.00,,SKC,0.00,VWS V14.01,2013-05-13 02:25:00,
2013-05-12 21:30:00,45.1,15.6,30.11,NW,314,0.0,0.0,30,0.00,,SKC,0.00,VWS V14.01,2013-05-13 02:30:00,
2013-05-12 21:35:00,45.0,16.2,30.11,NW,314,0.0,0.0,31,0.00,,SKC,0.00,VWS V14.01,2013-05-13 02:35:00,
2013-05-12 21:40:00,44.6,16.6,30.11,NW,314,0.0,0.0,32,0.00,,SKC,0.00,VWS V14.01,2013-05-13 02:40:00,
2013-05-12 21:45:00,44.1,16.1,30.11,NW,314,0.0,0.0,32,0.00,,SKC,0.00,VWS V14.01,2013-05-13 02:45:00,
2013-05-12 21:50:00,43.7,15.8,30.14,NW,314,0.0,0.0,32,0.00,,SKC,0.00,VWS V14.01,2013-05-13 02:50:00,
2013-05-12 21:55:00,43.5,15.6,30.14,NW,314,0.0,0.0,32,0.00,,SKC,0.00,VWS V14.01,2013-05-13 02:55:00,
2013-05-12 22:00:00,43.2,15.3,30.14,NW,314,0.0,0.0,32,0.00,,SKC,0.00,VWS V14.01,2013-05-13 03:00:00,
2013-05-12 22:05:00,42.8,15.7,30.14,NW,314,0.0,0.0,33,0.00,,SKC,0.00,VWS V14.01,2013-05-13 03:05:00,
2013-05-12 22:10:00,42.4,15.4,30.14,NW,314,0.0,0.0,33,0.00,,SKC,0.00,VWS V14.01,2013-05-13 03:10:00,
2013-05-12 22:15:00,42.1,15.8,30.14,NW,314,0.0,0.0,34,0.00,,SKC,0.00,VWS V14.01,2013-05-13 03:15:00,
2013-05-12 22:20:00,41.7,16.1,30.14,NW,314,0.0,0.0,35,0.00,,SKC,0.00,VWS V14.01,2013-05-13 03:20:00,
2013-05-12 22:25:00,41.4,15.8,30.14,NW,314,0.0,0.0,35,0.00,,SKC,0.00,VWS V14.01,2013-05-13 03:25:00,
2013-05-12 22:30:00,41.2,17.5,30.14,NW,314,0.0,0.0,38,0.00,,SKC,0.00,VWS V14.01,2013-05-13 03:30:00,
2013-05-12 22:35:00,40.8,17.2,30.14,NW,314,0.0,0.0,38,0.00,,SKC,0.00,VWS V14.01,2013-05-13 03:35:00,
2013-05-12 22:40:00,40.5,17.5,30.14,NW,314,0.0,0.0,39,0.00,,SKC,0.00,VWS V14.01,2013-05-13 03:40:00,
2013-05-12 22:45:00,40.3,17.3,30.14,NW,314,0.0,0.0,39,0.00,,SKC,0.00,VWS V14.01,2013-05-13 03:45:00,
2013-05-12 22:50:00,39.9,17.0,30.14,NW,314,0.0,0.0,39,0.00,,SKC,0.00,VWS V14.01,2013-05-13 03:50:00,
2013-05-12 22:55:00,39.9,17.0,30.14,NW,314,0.0,0.0,39,0.00,,SKC,0.00,VWS V14.01,2013-05-13 03:55:00,
2013-05-12 23:00:00,39.7,16.8,30.14,NW,314,0.0,0.0,39,0.00,,SKC,0.00,VWS V14.01,2013-05-13 04:00:00,
2013-05-12 23:01:00,39.7,16.8,30.14,NW,314,0.0,0.0,39,0.00,,SKC,0.00,VWS V14.01,2013-05-13 04:01:00,
2013-05-12 23:02:00,39.6,16.7,30.14,NW,314,0.0,0.0,39,0.00,,SKC,0.00,VWS V14.01,2013-05-13 04:02:00,
2013-05-12 23:03:00,39.6,16.7,30.14,NW,314,0.0,0.0,39,0.00,,SKC,0.00,VWS V14.01,2013-05-13 04:03:00,
2013-05-12 23:05:00,39.4,16.5,30.14,NW,314,0.0,0.0,39,0.00,,SKC,0.00,VWS V14.01,2013-05-13 04:05:00,
2013-05-12 23:11:00,39.2,16.9,30.14,NW,314,0.0,0.0,40,0.00,,SKC,0.00,VWS V14.01,2013-05-13 04:11:00,
2013-05-12 23:16:00,39.0,16.8,30.14,NW,314,0.0,0.0,40,0.00,,SKC,0.00,VWS V14.01,2013-05-13 04:16:00,
2013-05-12 23:21:00,38.8,17.2,30.14,NW,314,0.0,0.0,41,0.00,,SKC,0.00,VWS V14.01,2013-05-13 04:21:00,
2013-05-12 23:26:00,38.7,18.1,30.14,NW,314,0.0,0.0,43,0.00,,SKC,0.00,VWS V14.01,2013-05-13 04:26:00,
2013-05-12 23:32:00,38.5,17.9,30.14,NW,314,0.0,0.0,43,0.00,,SKC,0.00,VWS V14.01,2013-05-13 04:32:00,
2013-05-12 23:37:00,38.3,18.8,30.14,NW,314,0.0,0.0,45,0.00,,SKC,0.00,VWS V14.01,2013-05-13 04:37:00,
2013-05-12 23:42:00,38.1,18.7,30.14,NW,314,0.0,0.0,45,0.00,,SKC,0.00,VWS V14.01,2013-05-13 04:42:00,
2013-05-12 23:47:00,37.9,20.0,30.14,NW,314,0.0,0.0,48,0.00,,SKC,0.00,VWS V14.01,2013-05-13 04:47:00,
2013-05-12 23:52:00,37.8,19.9,30.14,NW,314,0.0,0.0,48,0.00,,SKC,0.00,VWS V14.01,2013-05-13 04:52:00,
2013-05-12 23:57:00,37.6,19.7,30.14,NW,314,0.0,0.0,48,0.00,,SKC,0.00,VWS V14.01,2013-05-13 04:57:00,